createdAt,value
2023-05-19T00:00:02.852Z,1.50
2023-05-19T00:03:37.505Z,1.50
2023-05-19T00:06:57.382Z,1.30
2023-05-19T00:10:35.992Z,1.10
2023-05-19T00:13:51.176Z,1.80
2023-05-19T00:17:19.909Z,1.60
2023-05-19T00:20:34.423Z,1.70
2023-05-19T00:23:35.450Z,1.70
2023-05-19T00:26:44.040Z,1.50
2023-05-19T00:30:09.739Z,2.10
2023-05-19T00:33:12.729Z,1.60
2023-05-19T00:36:30.573Z,1.90
2023-05-19T00:39:59.793Z,1.70
2023-05-19T00:43:11.903Z,1.80
2023-05-19T00:46:07.832Z,1.70
2023-05-19T00:49:26.630Z,2.30
2023-05-19T00:52:54.252Z,2.50
2023-05-19T00:56:18.646Z,2.00
2023-05-19T00:59:42.315Z,1.60
2023-05-19T01:05:33.277Z,1.70
2023-05-19T01:08:16.570Z,2.90
2023-05-19T01:11:00.378Z,2.10
2023-05-19T01:13:44.071Z,1.80
2023-05-19T01:16:40.088Z,1.30
2023-05-19T01:19:48.589Z,1.50
2023-05-19T01:22:50.180Z,2.00
2023-05-19T01:25:54.999Z,2.10
2023-05-19T01:28:49.930Z,2.20
2023-05-19T01:31:34.093Z,2.40
2023-05-19T01:34:19.029Z,2.90
2023-05-19T01:37:03.932Z,2.00
2023-05-19T01:39:48.461Z,2.00
2023-05-19T01:42:37.437Z,2.20
2023-05-19T01:45:22.164Z,2.20
2023-05-19T01:48:07.230Z,2.30
2023-05-19T01:50:52.520Z,1.60
2023-05-19T01:53:35.679Z,3.10
2023-05-19T01:56:27.588Z,2.40
2023-05-19T01:59:24.202Z,2.20
2023-05-19T02:02:23.308Z,1.80
2023-05-19T02:05:45.029Z,2.20
2023-05-19T02:08:48.434Z,2.50
2023-05-19T02:11:37.894Z,1.90
2023-05-19T02:14:34.339Z,1.70
2023-05-19T02:17:18.874Z,1.90
2023-05-19T02:20:04.639Z,1.80
2023-05-19T02:22:47.981Z,2.20
2023-05-19T02:25:30.910Z,2.40
2023-05-19T02:28:13.762Z,2.10
2023-05-19T02:30:56.623Z,2.50
2023-05-19T02:33:39.443Z,2.40
2023-05-19T02:36:22.324Z,2.20
2023-05-19T02:39:05.294Z,2.30
2023-05-19T02:41:48.409Z,2.40
2023-05-19T02:44:31.429Z,2.10
2023-05-19T02:47:14.310Z,2.20
2023-05-19T02:49:57.116Z,2.60
2023-05-19T02:55:22.779Z,2.30
2023-05-19T02:58:05.748Z,2.30
2023-05-19T03:00:48.646Z,2.20
2023-05-19T03:03:31.981Z,2.20
2023-05-19T03:06:15.711Z,2.60
2023-05-19T03:08:58.814Z,2.40
2023-05-19T03:11:41.723Z,2.70
2023-05-19T03:14:24.582Z,2.50
2023-05-19T03:17:08.462Z,2.30
2023-05-19T03:19:51.951Z,2.90
2023-05-19T03:22:35.413Z,2.70
2023-05-19T03:25:18.589Z,2.40
2023-05-19T03:28:01.784Z,2.50
2023-05-19T03:30:44.664Z,2.70
2023-05-19T03:33:30.646Z,2.90
2023-05-19T03:36:13.769Z,3.10
2023-05-19T03:38:56.656Z,3.00
2023-05-19T03:41:39.609Z,3.60
2023-05-19T03:44:22.722Z,3.20
2023-05-19T03:47:05.955Z,2.80
2023-05-19T03:50:17.797Z,2.70
2023-05-19T03:53:08.223Z,2.90
2023-05-19T03:55:56.759Z,3.10
2023-05-19T03:58:43.489Z,2.80
2023-05-19T04:01:26.492Z,3.60
2023-05-19T04:04:09.450Z,3.00
2023-05-19T04:06:52.577Z,2.90
2023-05-19T04:09:37.654Z,2.90
2023-05-19T04:12:20.609Z,2.80
2023-05-19T04:15:03.935Z,3.50
2023-05-19T04:17:46.963Z,2.80
2023-05-19T04:20:29.953Z,2.60
2023-05-19T04:23:13.072Z,3.40
2023-05-19T04:25:57.174Z,3.40
2023-05-19T04:28:42.510Z,4.30
2023-05-19T04:31:26.197Z,3.60
2023-05-19T04:34:10.059Z,3.90
2023-05-19T04:36:53.585Z,3.50
2023-05-19T04:39:43.167Z,3.00
2023-05-19T04:42:30.829Z,2.90
2023-05-19T04:45:15.149Z,2.80
2023-05-19T04:48:00.213Z,3.00
2023-05-19T04:50:43.202Z,2.90
2023-05-19T04:53:26.316Z,3.90
2023-05-19T04:56:10.132Z,3.20
2023-05-19T04:58:53.933Z,3.50
2023-05-19T05:01:41.012Z,3.30
2023-05-19T05:04:24.605Z,3.50
2023-05-19T05:07:07.548Z,3.10
2023-05-19T05:09:50.965Z,3.60
2023-05-19T05:12:35.009Z,2.90
2023-05-19T05:15:18.682Z,3.10
2023-05-19T05:18:02.600Z,3.30
2023-05-19T05:20:47.058Z,3.20
2023-05-19T05:23:31.361Z,3.30
2023-05-19T05:26:19.762Z,3.10
2023-05-19T05:29:04.460Z,3.40
2023-05-19T05:31:47.388Z,3.50
2023-05-19T05:34:30.788Z,3.40
2023-05-19T05:37:15.342Z,3.20
2023-05-19T05:39:58.699Z,4.10
2023-05-19T05:42:42.318Z,3.40
2023-05-19T05:45:25.852Z,3.80
2023-05-19T05:48:09.814Z,3.20
2023-05-19T05:50:54.669Z,3.10
2023-05-19T05:53:45.162Z,3.30
2023-05-19T05:56:29.567Z,3.70
2023-05-19T05:59:12.508Z,3.50
2023-05-19T06:01:55.389Z,3.30
2023-05-19T06:04:39.536Z,4.30
2023-05-19T06:07:22.655Z,4.10
2023-05-19T06:10:07.145Z,3.70
2023-05-19T06:12:50.634Z,3.20
2023-05-19T06:15:33.801Z,3.60
2023-05-19T06:18:30.233Z,3.70
2023-05-19T06:21:14.210Z,3.30
2023-05-19T06:23:58.113Z,3.20
2023-05-19T06:26:42.236Z,3.50
2023-05-19T06:29:25.149Z,3.10
2023-05-19T06:32:09.109Z,3.90
2023-05-19T06:34:54.205Z,3.60
2023-05-19T06:37:39.631Z,3.50
2023-05-19T06:40:23.337Z,3.70
2023-05-19T06:43:07.386Z,3.30
2023-05-19T06:46:07.890Z,3.80
2023-05-19T06:48:50.964Z,3.60
2023-05-19T06:51:36.032Z,4.30
2023-05-19T06:54:19.176Z,3.60
2023-05-19T06:57:02.208Z,4.30
2023-05-19T06:59:46.808Z,3.30
2023-05-19T07:02:30.141Z,3.80
2023-05-19T07:05:13.502Z,3.60
2023-05-19T07:07:56.759Z,3.70
2023-05-19T07:10:42.030Z,3.80
2023-05-19T07:13:27.858Z,3.80
2023-05-19T07:16:11.564Z,3.70
2023-05-19T07:18:55.004Z,4.20
2023-05-19T07:21:37.955Z,3.50
2023-05-19T07:24:21.657Z,4.20
2023-05-19T07:27:05.549Z,3.80
2023-05-19T07:29:48.377Z,3.20
2023-05-19T07:32:31.317Z,4.10
2023-05-19T07:35:14.241Z,3.40
2023-05-19T07:37:56.995Z,3.90
2023-05-19T07:40:39.888Z,4.20
2023-05-19T07:43:22.725Z,3.30
2023-05-19T07:46:06.413Z,3.70
2023-05-19T07:48:49.590Z,3.30
2023-05-19T07:51:32.649Z,3.90
2023-05-19T07:54:15.620Z,3.60
2023-05-19T07:56:58.634Z,3.50
2023-05-19T07:59:41.541Z,3.10
2023-05-19T08:02:24.453Z,4.00
2023-05-19T08:05:09.350Z,3.20
2023-05-19T08:07:52.637Z,3.50
2023-05-19T08:10:35.863Z,3.50
2023-05-19T08:13:18.856Z,3.50
2023-05-19T08:16:01.902Z,3.60
2023-05-19T08:18:44.925Z,4.60
2023-05-19T08:21:28.030Z,2.80
2023-05-19T08:24:11.476Z,3.30
2023-05-19T08:26:54.310Z,3.70
2023-05-19T08:29:38.306Z,4.40
2023-05-19T08:32:21.540Z,3.80
2023-05-19T08:35:04.941Z,3.90
2023-05-19T08:37:47.824Z,4.10
2023-05-19T08:40:31.993Z,3.10
2023-05-19T08:43:15.152Z,2.90
2023-05-19T08:45:59.595Z,3.00
2023-05-19T08:48:44.465Z,3.70
2023-05-19T08:51:47.134Z,2.60
2023-05-19T08:54:38.420Z,2.60
2023-05-19T08:57:23.222Z,3.00
2023-05-19T09:00:12.123Z,2.70
2023-05-19T09:03:01.408Z,3.00
2023-05-19T09:05:49.374Z,3.40
2023-05-19T09:08:32.779Z,3.00
2023-05-19T09:11:15.673Z,3.20
2023-05-19T09:13:58.549Z,2.70
2023-05-19T09:16:41.946Z,3.40
2023-05-19T09:19:28.866Z,3.30
2023-05-19T09:22:11.826Z,2.80
2023-05-19T09:24:55.767Z,3.50
2023-05-19T09:27:38.570Z,3.20
2023-05-19T09:30:21.515Z,3.50
2023-05-19T09:33:08.439Z,4.30
2023-05-19T09:35:52.119Z,3.40
2023-05-19T09:38:36.473Z,4.50
2023-05-19T09:41:19.988Z,4.10
2023-05-19T09:44:02.819Z,3.40
2023-05-19T09:46:52.903Z,3.90
2023-05-19T09:49:35.801Z,3.30
2023-05-19T09:52:18.650Z,3.10
2023-05-19T09:55:04.386Z,3.70
2023-05-19T09:57:47.298Z,3.10
2023-05-19T10:00:32.940Z,3.00
2023-05-19T10:03:17.849Z,3.00
2023-05-19T10:06:09.296Z,2.50
2023-05-19T10:08:53.210Z,3.70
2023-05-19T10:11:36.579Z,3.30
2023-05-19T10:14:29.680Z,3.10
2023-05-19T10:17:13.586Z,3.10
2023-05-19T10:19:57.967Z,3.20
2023-05-19T10:22:42.490Z,3.40
2023-05-19T10:25:26.019Z,2.90
2023-05-19T10:28:13.995Z,3.70
2023-05-19T10:31:01.796Z,3.00
2023-05-19T10:34:19.158Z,2.90
2023-05-19T10:37:17.263Z,3.30
2023-05-19T10:40:06.492Z,3.20
2023-05-19T10:43:14.201Z,3.00
2023-05-19T10:45:58.540Z,2.80
2023-05-19T10:48:46.575Z,3.70
2023-05-19T10:51:34.622Z,3.30
2023-05-19T10:54:18.637Z,3.60
2023-05-19T10:57:01.510Z,3.40
2023-05-19T10:59:44.916Z,3.50
2023-05-19T11:02:46.166Z,3.80
2023-05-19T11:05:30.133Z,3.60
2023-05-19T11:08:13.641Z,3.50
2023-05-19T11:10:57.429Z,3.90
2023-05-19T11:13:43.817Z,3.90
2023-05-19T11:16:34.663Z,3.20
2023-05-19T11:19:28.335Z,3.80
2023-05-19T11:22:13.874Z,3.00
2023-05-19T11:24:57.605Z,4.00
2023-05-19T11:27:40.517Z,3.00
2023-05-19T11:30:23.544Z,3.30
2023-05-19T11:33:07.729Z,3.40
2023-05-19T11:35:51.502Z,3.60
2023-05-19T11:38:35.202Z,2.80
2023-05-19T11:41:19.532Z,3.50
2023-05-19T11:44:04.024Z,3.20
2023-05-19T11:46:47.030Z,4.10
2023-05-19T11:49:30.080Z,3.40
2023-05-19T11:52:13.364Z,3.70
2023-05-19T11:55:01.152Z,3.10
2023-05-19T11:58:05.734Z,3.70
2023-05-19T12:00:49.737Z,2.90
2023-05-19T12:03:33.330Z,2.80
2023-05-19T12:06:17.605Z,2.70
2023-05-19T12:09:01.074Z,3.40
2023-05-19T12:11:43.955Z,3.10
2023-05-19T12:14:27.401Z,3.20
2023-05-19T12:17:14.857Z,3.60
2023-05-19T12:19:58.159Z,3.00
2023-05-19T12:22:41.553Z,4.00
2023-05-19T12:25:25.264Z,3.10
2023-05-19T12:28:08.128Z,3.60
2023-05-19T12:30:52.308Z,2.80
2023-05-19T12:33:35.985Z,3.10
2023-05-19T12:36:19.202Z,2.30
2023-05-19T12:39:02.149Z,2.40
2023-05-19T12:41:45.772Z,1.60
2023-05-19T12:44:28.647Z,1.70
2023-05-19T12:47:11.484Z,2.00
2023-05-19T12:50:00.971Z,2.00
2023-05-19T12:52:48.650Z,3.40
2023-05-19T12:55:39.342Z,3.50
2023-05-19T12:58:22.973Z,2.60
2023-05-19T13:01:08.358Z,3.10
2023-05-19T13:03:52.398Z,3.00
2023-05-19T13:06:35.515Z,3.10
2023-05-19T13:09:19.145Z,3.60
2023-05-19T13:12:02.453Z,2.60
2023-05-19T13:14:45.320Z,2.60
2023-05-19T13:17:28.365Z,2.80
2023-05-19T13:20:12.545Z,3.10
2023-05-19T13:22:57.140Z,2.20
2023-05-19T13:25:42.186Z,2.30
2023-05-19T13:28:25.347Z,2.30
2023-05-19T13:31:08.271Z,3.00
2023-05-19T13:33:51.277Z,2.50
2023-05-19T13:36:35.108Z,3.00
2023-05-19T13:39:18.175Z,3.00
2023-05-19T13:42:01.428Z,2.40
2023-05-19T13:44:47.374Z,3.00
2023-05-19T13:47:30.532Z,3.40
2023-05-19T13:50:15.731Z,3.60
2023-05-19T13:52:58.928Z,3.40
2023-05-19T13:55:42.027Z,3.60
2023-05-19T13:58:25.132Z,3.40
2023-05-19T14:01:08.108Z,3.60
2023-05-19T14:03:51.682Z,3.40
2023-05-19T14:06:35.373Z,3.60
2023-05-19T14:09:18.446Z,3.40
2023-05-19T14:12:01.466Z,3.90
2023-05-19T14:14:44.362Z,3.20
2023-05-19T14:17:27.857Z,3.50
2023-05-19T14:20:11.311Z,3.20
2023-05-19T14:22:55.698Z,2.90
2023-05-19T14:25:38.634Z,3.30
2023-05-19T14:28:21.765Z,3.20
2023-05-19T14:31:06.223Z,3.50
2023-05-19T14:33:49.191Z,3.50
2023-05-19T14:36:33.238Z,4.10
2023-05-19T14:39:16.107Z,3.30
2023-05-19T14:42:01.768Z,2.70
2023-05-19T14:44:45.338Z,2.70
2023-05-19T14:47:28.253Z,3.30
2023-05-19T14:50:11.611Z,3.90
2023-05-19T14:52:54.425Z,3.30
2023-05-19T14:55:37.510Z,3.40
2023-05-19T14:58:28.889Z,3.50
2023-05-19T15:01:12.429Z,3.70
2023-05-19T15:03:55.625Z,3.70
2023-05-19T15:06:38.769Z,3.70
2023-05-19T15:09:21.740Z,3.60
2023-05-19T15:12:04.945Z,3.10
2023-05-19T15:14:48.352Z,3.20
2023-05-19T15:17:31.312Z,3.80
2023-05-19T15:20:14.247Z,3.10
2023-05-19T15:22:57.165Z,3.30
2023-05-19T15:25:40.031Z,3.30
2023-05-19T15:28:23.155Z,4.50
2023-05-19T15:31:06.721Z,3.20
2023-05-19T15:33:49.867Z,4.30
2023-05-19T15:36:32.798Z,4.30
2023-05-19T15:39:15.695Z,3.30
2023-05-19T15:41:58.522Z,4.60
2023-05-19T15:44:41.385Z,4.80
2023-05-19T15:47:24.260Z,5.10
2023-05-19T15:50:08.093Z,4.80
2023-05-19T15:52:50.974Z,3.60
2023-05-19T15:55:33.837Z,3.60
2023-05-19T15:58:16.850Z,4.10
2023-05-19T16:01:00.193Z,3.30
2023-05-19T16:03:45.915Z,4.00
2023-05-19T16:06:29.490Z,4.60
2023-05-19T16:09:12.369Z,4.00
2023-05-19T16:11:55.265Z,4.60
2023-05-19T16:14:38.201Z,4.90
2023-05-19T16:17:21.100Z,3.20
2023-05-19T16:20:04.368Z,3.80
2023-05-19T16:22:47.178Z,4.00
2023-05-19T16:25:31.125Z,4.20
2023-05-19T16:28:14.674Z,4.50
2023-05-19T16:30:59.431Z,4.20
2023-05-19T16:33:42.569Z,3.70
2023-05-19T16:36:25.636Z,4.50
2023-05-19T16:39:08.578Z,4.60
2023-05-19T16:41:52.826Z,4.60
2023-05-19T16:44:36.011Z,4.50
2023-05-19T16:47:18.915Z,4.60
2023-05-19T16:50:01.895Z,4.40
2023-05-19T16:52:44.859Z,5.00
2023-05-19T16:55:27.717Z,5.30
2023-05-19T16:58:11.791Z,6.90
2023-05-19T17:00:54.690Z,6.30
2023-05-19T17:03:37.800Z,4.90
2023-05-19T17:06:20.770Z,4.30
2023-05-19T17:09:04.084Z,4.60
2023-05-19T17:11:46.909Z,4.40
2023-05-19T17:14:29.733Z,5.40
2023-05-19T17:17:12.685Z,4.70
2023-05-19T17:19:55.757Z,5.20
2023-05-19T17:22:38.558Z,5.50
2023-05-19T17:25:21.659Z,4.80
2023-05-19T17:28:04.593Z,4.90
2023-05-19T17:30:47.550Z,4.80
2023-05-19T17:33:30.852Z,4.50
2023-05-19T17:36:14.346Z,4.80
2023-05-19T17:38:57.163Z,5.20
2023-05-19T17:41:40.010Z,4.00
2023-05-19T17:44:22.912Z,4.20
2023-05-19T17:47:07.283Z,4.80
2023-05-19T17:49:53.134Z,5.40
2023-05-19T17:52:36.761Z,6.00
2023-05-19T17:55:20.349Z,5.50
2023-05-19T17:58:03.795Z,5.20
2023-05-19T18:00:46.989Z,4.70
2023-05-19T18:03:30.468Z,5.10
2023-05-19T18:06:13.615Z,5.30
2023-05-19T18:08:59.099Z,4.90
2023-05-19T18:11:41.991Z,4.30
2023-05-19T18:14:24.783Z,4.30
2023-05-19T18:17:07.774Z,4.70
2023-05-19T18:19:50.744Z,4.70
2023-05-19T18:22:33.778Z,4.90
2023-05-19T18:25:20.940Z,5.70
2023-05-19T18:28:04.086Z,5.60
2023-05-19T18:30:47.044Z,4.70
2023-05-19T18:33:31.100Z,6.20
2023-05-19T18:36:16.610Z,4.70
2023-05-19T18:39:00.222Z,5.70
2023-05-19T18:41:43.255Z,5.70
2023-05-19T18:44:26.129Z,5.10
2023-05-19T18:47:08.992Z,6.10
2023-05-19T18:49:51.904Z,6.10
2023-05-19T18:52:35.385Z,5.40
2023-05-19T18:55:18.228Z,5.40
2023-05-19T18:58:01.973Z,5.30
2023-05-19T19:00:44.923Z,5.20
2023-05-19T19:03:28.740Z,4.90
2023-05-19T19:06:11.762Z,5.70
2023-05-19T19:08:54.567Z,5.60
2023-05-19T19:11:37.688Z,6.10
2023-05-19T19:14:20.649Z,5.60
2023-05-19T19:17:03.550Z,8.10
2023-05-19T19:19:47.346Z,5.00
2023-05-19T19:22:30.457Z,5.50
2023-05-19T19:25:13.480Z,5.60
2023-05-19T19:27:56.376Z,5.70
2023-05-19T19:30:39.754Z,6.00
2023-05-19T19:33:22.635Z,5.80
2023-05-19T19:36:07.050Z,6.10
2023-05-19T19:38:50.195Z,6.50
2023-05-19T19:41:33.562Z,7.20
2023-05-19T19:44:16.991Z,7.60
2023-05-19T19:47:00.052Z,7.40
2023-05-19T19:49:43.003Z,6.70
2023-05-19T19:52:26.072Z,6.60
2023-05-19T19:55:09.743Z,6.10
2023-05-19T19:57:52.867Z,6.30
2023-05-19T20:00:35.940Z,6.50
2023-05-19T20:03:22.424Z,6.80
2023-05-19T20:06:05.922Z,6.20
2023-05-19T20:08:49.266Z,7.00
2023-05-19T20:11:32.360Z,7.20
2023-05-19T20:14:15.549Z,6.30
2023-05-19T20:16:58.487Z,6.30
2023-05-19T20:19:44.253Z,6.40
2023-05-19T20:22:27.303Z,5.90
2023-05-19T20:25:10.420Z,6.20
2023-05-19T20:27:53.401Z,6.70
2023-05-19T20:30:36.663Z,5.90
2023-05-19T20:33:19.496Z,6.50
2023-05-19T20:36:02.691Z,6.40
2023-05-19T20:38:47.930Z,6.90
2023-05-19T20:41:31.611Z,6.00
2023-05-19T20:44:14.707Z,6.10
2023-05-19T20:46:57.913Z,5.90
2023-05-19T20:49:40.964Z,6.50
2023-05-19T20:52:23.869Z,6.40
2023-05-19T20:55:07.323Z,5.80
2023-05-19T20:57:50.421Z,6.30
2023-05-19T21:00:33.871Z,5.60
2023-05-19T21:03:17.202Z,5.80
2023-05-19T21:06:00.903Z,5.70
2023-05-19T21:08:43.714Z,6.00
2023-05-19T21:11:26.515Z,6.40
2023-05-19T21:14:09.436Z,5.50
2023-05-19T21:16:54.340Z,5.60
2023-05-19T21:19:37.350Z,6.00
2023-05-19T21:22:20.215Z,6.00
2023-05-19T21:25:03.648Z,6.10
2023-05-19T21:27:46.659Z,6.20
2023-05-19T21:30:29.562Z,6.40
2023-05-19T21:33:12.505Z,5.60
2023-05-19T21:35:55.738Z,5.80
2023-05-19T21:38:38.577Z,6.20
2023-05-19T21:41:22.372Z,6.90
2023-05-19T21:44:06.017Z,6.10
2023-05-19T21:46:49.036Z,6.30
2023-05-19T21:49:31.886Z,6.90
2023-05-19T21:52:14.753Z,6.40
2023-05-19T21:54:58.459Z,7.10
2023-05-19T21:57:41.328Z,7.50
2023-05-19T22:00:25.709Z,7.10
2023-05-19T22:03:08.662Z,7.30
2023-05-19T22:05:53.393Z,6.90
2023-05-19T22:08:36.180Z,6.70
2023-05-19T22:11:19.022Z,6.50
2023-05-19T22:14:01.914Z,7.60
2023-05-19T22:16:45.081Z,7.50
2023-05-19T22:19:28.007Z,7.90
2023-05-19T22:22:14.133Z,7.60
2023-05-19T22:24:57.573Z,7.50
2023-05-19T22:27:40.395Z,8.40
2023-05-19T22:30:23.429Z,8.10
2023-05-19T22:33:06.378Z,7.20
2023-05-19T22:35:49.502Z,7.50
2023-05-19T22:38:32.469Z,8.60
2023-05-19T22:41:15.266Z,7.60
2023-05-19T22:43:58.101Z,7.40
2023-05-19T22:46:40.992Z,7.70
2023-05-19T22:49:23.900Z,8.20
2023-05-19T22:52:09.184Z,9.50
2023-05-19T22:54:52.033Z,8.40
2023-05-19T22:57:35.074Z,8.90
2023-05-19T23:00:20.688Z,8.80
2023-05-19T23:03:03.761Z,8.60
2023-05-19T23:05:46.607Z,8.10
2023-05-19T23:08:29.477Z,8.20
2023-05-19T23:11:12.342Z,8.10
2023-05-19T23:13:55.409Z,9.20
2023-05-19T23:16:38.371Z,9.10
2023-05-19T23:19:21.240Z,9.10
2023-05-19T23:22:04.290Z,8.80
2023-05-19T23:24:47.144Z,9.60
2023-05-19T23:27:29.995Z,9.60
2023-05-19T23:30:12.896Z,9.90
2023-05-19T23:32:56.247Z,8.90
2023-05-19T23:35:39.766Z,9.30
2023-05-19T23:38:22.610Z,9.20
2023-05-19T23:41:05.453Z,9.10
2023-05-19T23:43:48.270Z,8.10
2023-05-19T23:46:31.522Z,9.90
2023-05-19T23:49:14.676Z,9.00
2023-05-19T23:51:57.531Z,8.30
2023-05-19T23:54:40.777Z,8.40
2023-05-19T23:57:23.565Z,8.90
